Air Navigation Services of Czech Republic  
Last data update:  08.08.2022 16:35:33 UTC česká verze
   METEO Page displayed:  08.08.2022 16:36:53 UTC  
vysvětlivky
METAR EDDB 081620Z AUTO 08003KT 040V130 CAVOK 26/06 Q1023 NOSIG=
METAR EDDC 081620Z AUTO 09008KT 050V140 CAVOK 25/06 Q1023 NOSIG=
METAR EDDE 081620Z AUTO 04009KT 020V090 CAVOK 26/06 Q1023 NOSIG=
METAR EDDF 081620Z 36008KT 330V040 CAVOK 30/05 Q1021 NOSIG=
METAR COR EDDM 081620Z AUTO 06005KT 020V100 CAVOK 25/10 Q1022 NOSIG=
METAR COR EDDN 081620Z AUTO 36005KT 300V050 CAVOK 28/06 Q1022 NOSIG=
METAR EDDP 081620Z 33007KT 280V010 CAVOK 25/10 Q1023 NOSIG=
METAR EDQM 081620Z VRB08KT CAVOK 24/05 Q1024=
METAR EPBY 081630Z 05006KT CAVOK 23/08 Q1024=
METAR EPGD 081630Z 05007KT CAVOK 18/12 Q1025=
METAR EPKK 081630Z 10006KT 060V140 9999 BKN056 22/10 Q1023=
METAR EPKT 081630Z 05006KT 350V070 CAVOK 22/08 Q1023=
METAR EPLL 081630Z 02008KT 320V070 CAVOK 23/09 Q1024=
METAR EPPO 081630Z 02004KT CAVOK 24/07 Q1024=
METAR EPRZ 081630Z 01009KT CAVOK 21/11 Q1023=
METAR EPWA 081630Z VRB02KT CAVOK 23/09 Q1024 NOSIG=
METAR EPWR 081630Z 04007KT CAVOK 23/08 Q1024=
METAR LHBP 081630Z 34011KT CAVOK 24/15 Q1019 NOSIG=
METAR LHSM 081615Z AUTO 02012KT CAVOK 21/12 Q1021=
METAR LKBC NIL
METAR LKCS 081630Z AUTO 33005KT 280V050 9999 SCT067/// 24/09 Q1023=
METAR LKCV 081630Z 02008KT CAVOK 24/08 Q1023 NOSIG RMK BLU BLU=
METAR LKKB 081630Z VRB02KT CAVOK 24/07 Q1023 NOSIG RMK BLU BLU=
METAR LKKU NIL
METAR LKKV 081630Z 08007KT 040V130 CAVOK 23/04 Q1024=
METAR LKLN 081630Z AUTO 05007KT 330V100 CAVOK 25/05 Q1023=
METAR LKMT 081630Z 04008KT CAVOK 23/11 Q1022 NOSIG=
METAR LKNA 081630Z 04009KT 350V060 CAVOK 23/08 Q1023 NOSIG RMK BLU BLU=
METAR LKPD 081630Z 04006KT 360V070 CAVOK 24/08 Q1023 NOSIG RMK BLU BLU=
METAR LKPJ 081630Z AUTO 03007KT 350V080 9999 FEW060/// 23/10 Q1022=
METAR LKPR 081630Z 07006KT CAVOK 23/08 Q1023 NOSIG=
METAR LKTB 081630Z 03008KT 350V070 CAVOK 24/09 Q1022 NOSIG=
METAR LKVO NIL
METAR LOWI 081620Z 08013KT 9999 FEW060 24/13 Q1021 NOSIG=
METAR LOWL 081620Z AUTO VRB02KT 9999 FEW045 23/11 Q1023 NOSIG=
METAR LOWS 081620Z 03007KT 350V080 9999 FEW050 23/11 Q1023 NOSIG=
METAR LOWW 081620Z 27011KT CAVOK 17/14 Q1022 NOSIG=
METAR LZIB 081630Z 29010KT 9999 -SHRA FEW035 FEW046TCU 19/14 Q1021 TEMPO SHRA FEW050CB=
METAR LZKZ 081630Z 36016KT CAVOK 21/13 Q1020 NOSIG=
METAR LZMC NIL
METAR LZPP 081630Z 11003KT CAVOK 21/16 Q1020=
METAR LZSL NIL
METAR LZTT 081630Z 05011KT 9999 SCT063 18/11 Q1023 NOSIG=
METAR LZZI 081630Z 05006KT 360V070 9999 BKN059 22/12 Q1022=